TAF LDRI 260525Z 2606/2706 VRB02KT CAVOK
                 TX22/2613Z TN13/2704Z
           TEMPO 2608/2612 32006KT
    PROB30 TEMPO 2610/2617 SHRA FEW030TCU
    PROB30 TEMPO 2622/2702 RA BKN014=
TAF LDRI 252325Z 2600/2700 VRB02KT CAVOK
                 TX25/2613Z TN15/2604Z
           TEMPO 2608/2614 32007KT=
TAF LDRI 251725Z 2518/2618 VRB02KT CAVOK
                 TX22/2612Z TN15/2603Z
           TEMPO 2611/2616 32007KT=
TAF LDRI 251125Z 2512/2612 VRB02KT CAVOK
                 TX23/2512Z TN15/2603Z=
TAF LDRI 250525Z 2506/2606 VRB02KT CAVOK
                 TX24/2512Z TN15/2602Z=
TAF LDRI 242325Z 2500/2600 VRB02KT CAVOK
                 TX24/2512Z TN15/2503Z=